Station Historical Data
Daily Summary for July 25, 2012 Units:  English    Metric   Both
« Previous Day
Next Day »
Daily Weekly Monthly Yearly Custom
  High: Low: Average:
Temperature: 91.9 °F 73.2 °F 82.5 °F
Dew Point: 77.6 °F 70.7 °F 74.3 °F
Humidity: 92% 56% 78%
Wind Speed: 11.0mph 0.0mph 2.5mph
Wind Gust: 14.0mph - -
Wind- - SW
Pressure: 29.97 in 29.84 in -
Precipitation: 0.00 in    
Historical Graphs
 
 
Tabular Data for July 25, 2012
Time Temperature Dew Point Pressure Wind Wind Speed Wind Gust Humidity Rainfall Rate (Hourly) Conditions
00:00 78.5 °F 74.3 °F 29.92 in SW 1.0 mph 2.0 mph 87% 0.00 in
00:06 78.5 °F 74.3 °F 29.92 in Calm   1.0 mph 87% 0.00 in
00:11 78.5 °F 74.3 °F 29.92 in Calm   1.0 mph 87% 0.00 in
00:16 78.4 °F 74.2 °F 29.92 in SW 1.0 mph 1.0 mph 87% 0.00 in
00:21 78.4 °F 74.2 °F 29.92 in Calm   1.0 mph 87% 0.00 in
00:26 78.2 °F 74.0 °F 29.93 in Calm     87% 0.00 in
00:31 78.1 °F 73.9 °F 29.93 in Calm     87% 0.00 in
00:36 78.0 °F 74.2 °F 29.93 in Calm     88% 0.00 in
00:41 77.9 °F 74.1 °F 29.93 in Calm     88% 0.00 in
00:46 77.7 °F 73.9 °F 29.93 in Calm     88% 0.00 in
00:51 77.4 °F 73.6 °F 29.93 in Calm     88% 0.00 in
00:56 77.1 °F 73.6 °F 29.93 in Calm     89% 0.00 in
01:01 77.2 °F 73.7 °F 29.93 in Calm     89% 0.00 in
01:06 77.1 °F 73.6 °F 29.93 in Calm     89% 0.00 in
01:11 77.2 °F 74.0 °F 29.93 in Calm     90% 0.00 in
01:17 77.0 °F 73.5 °F 29.93 in Calm     89% 0.00 in
01:22 77.0 °F 73.8 °F 29.93 in Calm     90% 0.00 in
01:27 76.8 °F 73.7 °F 29.93 in Calm     90% 0.00 in
01:32 76.5 °F 73.3 °F 29.92 in Calm     90% 0.00 in
01:37 76.4 °F 73.6 °F 29.93 in Calm     91% 0.00 in
01:42 76.3 °F 73.5 °F 29.93 in Calm     91% 0.00 in
01:47 76.0 °F 73.2 °F 29.92 in Calm     91% 0.00 in
01:52 75.9 °F 73.1 °F 29.92 in Calm     91% 0.00 in
01:57 75.7 °F 72.9 °F 29.92 in Calm     91% 0.00 in
02:02 75.9 °F 73.4 °F 29.92 in Calm     92% 0.00 in
02:07 76.1 °F 73.3 °F 29.92 in Calm     91% 0.00 in
02:12 75.9 °F 73.1 °F 29.92 in Calm     91% 0.00 in
02:17 75.8 °F 73.3 °F 29.91 in Calm     92% 0.00 in
02:22 75.6 °F 73.1 °F 29.91 in Calm     92% 0.00 in
02:27 75.4 °F 72.9 °F 29.91 in Calm     92% 0.00 in
02:32 75.5 °F 73.0 °F 29.91 in Calm     92% 0.00 in
02:37 75.6 °F 73.1 °F 29.91 in Calm     92% 0.00 in
02:42 75.6 °F 73.1 °F 29.91 in Calm     92% 0.00 in
02:47 75.5 °F 73.0 °F 29.90 in Calm     92% 0.00 in
02:52 75.4 °F 72.9 °F 29.90 in Calm     92% 0.00 in
02:57 75.4 °F 72.9 °F 29.91 in Calm     92% 0.00 in
03:02 75.4 °F 72.9 °F 29.91 in Calm   1.0 mph 92% 0.00 in
03:07 75.4 °F 72.9 °F 29.90 in Calm   1.0 mph 92% 0.00 in
03:12 75.4 °F 72.9 °F 29.90 in Calm     92% 0.00 in
03:17 75.2 °F 72.7 °F 29.90 in Calm     92% 0.00 in
03:22 75.1 °F 72.6 °F 29.90 in Calm     92% 0.00 in
03:27 75.1 °F 72.6 °F 29.90 in Calm     92% 0.00 in
03:32 75.2 °F 72.7 °F 29.90 in Calm     92% 0.00 in
03:37 75.2 °F 72.7 °F 29.90 in SSW 1.0 mph 1.0 mph 92% 0.00 in
03:42 75.2 °F 72.7 °F 29.90 in Calm     92% 0.00 in
03:47 75.2 °F 72.7 °F 29.90 in Calm     92% 0.00 in
03:52 75.1 °F 72.6 °F 29.91 in Calm     92% 0.00 in
03:57 75.0 °F 72.5 °F 29.90 in Calm     92% 0.00 in
04:02 75.0 °F 72.5 °F 29.91 in Calm     92% 0.00 in
04:07 74.9 °F 72.4 °F 29.91 in Calm     92% 0.00 in
04:12 74.9 °F 72.4 °F 29.91 in Calm     92% 0.00 in
04:17 74.9 °F 72.4 °F 29.91 in Calm     92% 0.00 in
04:22 74.9 °F 72.4 °F 29.91 in Calm     92% 0.00 in
04:27 74.8 °F 72.3 °F 29.91 in Calm   1.0 mph 92% 0.00 in
04:32 74.8 °F 72.3 °F 29.91 in Calm   1.0 mph 92% 0.00 in
04:37 74.8 °F 72.3 °F 29.91 in SSW 1.0 mph 1.0 mph 92% 0.00 in
04:43 74.9 °F 72.4 °F 29.91 in South 1.0 mph 1.0 mph 92% 0.00 in
04:48 74.8 °F 72.3 °F 29.91 in Calm     92% 0.00 in
04:53 74.7 °F 72.2 °F 29.91 in South 1.0 mph 1.0 mph 92% 0.00 in
04:58 74.6 °F 72.1 °F 29.91 in SE 1.0 mph 1.0 mph 92% 0.00 in
05:03 74.5 °F 72.0 °F 29.91 in Calm   1.0 mph 92% 0.00 in
05:08 74.5 °F 72.0 °F 29.92 in Calm     92% 0.00 in
05:13 74.5 °F 72.0 °F 29.92 in SW 1.0 mph 1.0 mph 92% 0.00 in
05:18 74.4 °F 71.9 °F 29.92 in Calm   1.0 mph 92% 0.00 in
05:23 74.4 °F 71.9 °F 29.92 in Calm   1.0 mph 92% 0.00 in
05:28 74.3 °F 71.8 °F 29.92 in Calm     92% 0.00 in
05:33 74.2 °F 71.7 °F 29.92 in Calm     92% 0.00 in
05:38 74.1 °F 71.6 °F 29.92 in Calm     92% 0.00 in
05:43 74.1 °F 71.6 °F 29.92 in Calm     92% 0.00 in
05:48 74.0 °F 71.5 °F 29.92 in SW 1.0 mph 1.0 mph 92% 0.00 in
05:53 74.0 °F 71.5 °F 29.93 in Calm   1.0 mph 92% 0.00 in
05:58 74.0 °F 71.5 °F 29.93 in Calm     92% 0.00 in
06:03 73.9 °F 71.4 °F 29.93 in Calm     92% 0.00 in
06:08 73.9 °F 71.4 °F 29.93 in SW 1.0 mph 1.0 mph 92% 0.00 in
06:13 73.9 °F 71.4 °F 29.93 in SW 1.0 mph 2.0 mph 92% 0.00 in
06:18 73.9 °F 71.4 °F 29.93 in WSW 1.0 mph 2.0 mph 92% 0.00 in
06:26 73.7 °F 71.2 °F 29.93 in SW 1.0 mph 2.0 mph 92% 0.00 in
06:31 73.5 °F 71.0 °F 29.94 in SW 2.0 mph 3.0 mph 92% 0.00 in
06:36 73.3 °F 70.8 °F 29.94 in SSW 1.0 mph 2.0 mph 92% 0.00 in
06:41 73.3 °F 70.8 °F 29.94 in Calm   1.0 mph 92% 0.00 in
06:46 73.2 °F 70.7 °F 29.94 in SW 1.0 mph 2.0 mph 92% 0.00 in
06:52 73.2 °F 70.7 °F 29.94 in SW 1.0 mph 2.0 mph 92% 0.00 in
06:57 73.2 °F 70.7 °F 29.95 in SW 2.0 mph 2.0 mph 92% 0.00 in
07:02 73.2 °F 70.7 °F 29.95 in SW 1.0 mph 2.0 mph 92% 0.00 in
07:07 73.2 °F 70.7 °F 29.95 in SW 2.0 mph 2.0 mph 92% 0.00 in
07:12 73.2 °F 70.7 °F 29.95 in WSW 1.0 mph 2.0 mph 92% 0.00 in
07:17 73.2 °F 70.7 °F 29.95 in SW 1.0 mph 1.0 mph 92% 0.00 in
07:22 73.2 °F 70.7 °F 29.95 in SW 1.0 mph 2.0 mph 92% 0.00 in
07:27 73.2 °F 70.7 °F 29.95 in Calm   1.0 mph 92% 0.00 in
07:32 73.3 °F 70.8 °F 29.95 in Calm   1.0 mph 92% 0.00 in
07:37 73.3 °F 70.8 °F 29.95 in Calm   1.0 mph 92% 0.00 in
07:42 73.3 °F 70.8 °F 29.95 in SW 1.0 mph 1.0 mph 92% 0.00 in
07:47 73.4 °F 70.9 °F 29.95 in Calm   1.0 mph 92% 0.00 in
07:52 73.5 °F 71.0 °F 29.96 in Calm     92% 0.00 in
07:57 73.6 °F 71.1 °F 29.96 in Calm     92% 0.00 in
08:02 73.9 °F 71.4 °F 29.96 in Calm     92% 0.00 in
08:07 74.4 °F 71.9 °F 29.96 in SW 1.0 mph 1.0 mph 92% 0.00 in
08:12 74.8 °F 72.3 °F 29.97 in South 1.0 mph 1.0 mph 92% 0.00 in
08:17 75.2 °F 72.7 °F 29.96 in SW 1.0 mph 2.0 mph 92% 0.00 in
08:22 75.7 °F 73.2 °F 29.97 in SSW 1.0 mph 2.0 mph 92% 0.00 in
08:27 76.0 °F 73.5 °F 29.97 in SW 2.0 mph 4.0 mph 92% 0.00 in
08:32 76.3 °F 73.5 °F 29.97 in WSW 4.0 mph 4.0 mph 91% 0.00 in
08:37 76.7 °F 73.9 °F 29.97 in West 2.0 mph 3.0 mph 91% 0.00 in
08:43 77.1 °F 74.3 °F 29.97 in SW 2.0 mph 5.0 mph 91% 0.00 in
08:48 77.4 °F 74.2 °F 29.97 in WSW 5.0 mph 6.0 mph 90% 0.00 in
08:53 77.7 °F 74.5 °F 29.97 in SW 3.0 mph 4.0 mph 90% 0.00 in
08:58 78.0 °F 74.2 °F 29.97 in WSW 3.0 mph 6.0 mph 88% 0.00 in
09:03 78.4 °F 74.6 °F 29.97 in SW 6.0 mph 6.0 mph 88% 0.00 in
09:08 78.6 °F 74.8 °F 29.97 in WSW 2.0 mph 6.0 mph 88% 0.00 in
09:13 79.1 °F 74.9 °F 29.97 in West 1.0 mph 4.0 mph 87% 0.00 in
09:18 79.6 °F 75.1 °F 29.97 in WSW 4.0 mph 4.0 mph 86% 0.00 in
09:23 79.9 °F 75.3 °F 29.97 in West 2.0 mph 6.0 mph 86% 0.00 in
09:28 80.3 °F 75.4 °F 29.97 in WSW 4.0 mph 6.0 mph 85% 0.00 in
09:33 80.6 °F 75.3 °F 29.97 in SW 5.0 mph 6.0 mph 84% 0.00 in
09:38 80.9 °F 75.3 °F 29.97 in WNW 2.0 mph 6.0 mph 83% 0.00 in
09:43 81.3 °F 75.3 °F 29.97 in SW 7.0 mph 7.0 mph 82% 0.00 in
09:48 81.4 °F 75.4 °F 29.97 in West 2.0 mph 7.0 mph 82% 0.00 in
09:53 81.8 °F 75.4 °F 29.96 in WNW 5.0 mph 8.0 mph 81% 0.00 in
09:58 82.0 °F 76.0 °F 29.96 in West 5.0 mph 6.0 mph 82% 0.00 in
10:03 82.3 °F 75.5 °F 29.96 in West 4.0 mph 6.0 mph 80% 0.00 in
10:08 82.3 °F 75.5 °F 29.96 in West 5.0 mph 9.0 mph 80% 0.00 in
10:13 82.7 °F 75.2 °F 29.96 in West 4.0 mph 10.0 mph 78% 0.00 in
10:18 82.7 °F 75.5 °F 29.96 in WSW 6.0 mph 8.0 mph 79% 0.00 in
10:23 82.7 °F 75.5 °F 29.96 in WSW 5.0 mph 10.0 mph 79% 0.00 in
10:28 83.0 °F 75.8 °F 29.96 in WSW 10.0 mph 10.0 mph 79% 0.00 in
10:33 83.4 °F 76.2 °F 29.96 in SW 7.0 mph 7.0 mph 79% 0.00 in
10:38 83.5 °F 75.9 °F 29.96 in WSW 7.0 mph 7.0 mph 78% 0.00 in
10:43 84.0 °F 76.4 °F 29.96 in WSW 4.0 mph 5.0 mph 78% 0.00 in
10:48 84.3 °F 76.7 °F 29.96 in West 5.0 mph 7.0 mph 78% 0.00 in
10:53 84.2 °F 76.2 °F 29.96 in WNW 3.0 mph 7.0 mph 77% 0.00 in
10:58 84.3 °F 75.5 °F 29.96 in West 5.0 mph 9.0 mph 75% 0.00 in
11:03 84.5 °F 76.9 °F 29.96 in West 4.0 mph 7.0 mph 78% 0.00 in
11:08 84.6 °F 76.2 °F 29.96 in WSW 7.0 mph 8.0 mph 76% 0.00 in
11:13 85.2 °F 76.8 °F 29.96 in WSW 7.0 mph 7.0 mph 76% 0.00 in
11:18 85.4 °F 76.6 °F 29.95 in WSW 3.0 mph 8.0 mph 75% 0.00 in
11:23 85.6 °F 76.4 °F 29.95 in SW 6.0 mph 8.0 mph 74% 0.00 in
11:28 86.0 °F 77.6 °F 29.95 in West 6.0 mph 7.0 mph 76% 0.00 in
11:33 86.6 °F 76.9 °F 29.95 in West 5.0 mph 9.0 mph 73% 0.00 in
11:38 86.6 °F 76.9 °F 29.95 in WNW 3.0 mph 7.0 mph 73% 0.00 in
11:44 86.5 °F 76.4 °F 29.95 in West 7.0 mph 11.0 mph 72% 0.00 in
11:49 86.3 °F 76.2 °F 29.94 in West 2.0 mph 7.0 mph 72% 0.00 in
11:54 86.5 °F 76.8 °F 29.94 in SW 6.0 mph 7.0 mph 73% 0.00 in
11:59 86.8 °F 77.1 °F 29.94 in WNW 5.0 mph 8.0 mph 73% 0.00 in
12:04 87.1 °F 77.0 °F 29.94 in WSW 5.0 mph 8.0 mph 72% 0.00 in
12:09 87.3 °F 75.9 °F 29.94 in West 5.0 mph 9.0 mph 69% 0.00 in
12:14 87.3 °F 76.3 °F 29.93 in WSW 1.0 mph 6.0 mph 70% 0.00 in
12:19 87.2 °F 76.7 °F 29.93 in SW 3.0 mph 6.0 mph 71% 0.00 in
12:24 87.7 °F 76.3 °F 29.93 in WSW 3.0 mph 8.0 mph 69% 0.00 in
12:29 88.0 °F 75.7 °F 29.93 in Calm   5.0 mph 67% 0.00 in
12:34 87.8 °F 75.5 °F 29.93 in WNW 2.0 mph 7.0 mph 67% 0.00 in
12:39 88.3 °F 76.4 °F 29.93 in SW 3.0 mph 5.0 mph 68% 0.00 in
12:44 88.8 °F 76.9 °F 29.93 in WSW 6.0 mph 8.0 mph 68% 0.00 in
12:49 88.6 °F 74.9 °F 29.93 in SW 4.0 mph 5.0 mph 64% 0.00 in
12:54 88.9 °F 76.1 °F 29.93 in WNW 3.0 mph 3.0 mph 66% 0.00 in
12:59 89.1 °F 75.3 °F 29.92 in SW 3.0 mph 5.0 mph 64% 0.00 in
13:04 89.0 °F 75.2 °F 29.93 in West 6.0 mph 9.0 mph 64% 0.00 in
13:09 89.0 °F 75.2 °F 29.92 in WNW 4.0 mph 9.0 mph 64% 0.00 in
13:14 88.8 °F 75.5 °F 29.92 in WNW 2.0 mph 5.0 mph 65% 0.00 in
13:19 89.3 °F 76.5 °F 29.92 in SW 2.0 mph 4.0 mph 66% 0.00 in
13:24 89.2 °F 75.4 °F 29.92 in WNW 2.0 mph 5.0 mph 64% 0.00 in
13:29 89.2 °F 75.9 °F 29.92 in NW 1.0 mph 3.0 mph 65% 0.00 in
13:34 89.3 °F 76.5 °F 29.92 in West 2.0 mph 4.0 mph 66% 0.00 in
13:39 89.1 °F 76.3 °F 29.92 in SW 1.0 mph 3.0 mph 66% 0.00 in
13:44 89.6 °F 76.3 °F 29.91 in SW 3.0 mph 8.0 mph 65% 0.00 in
13:49 89.9 °F 76.6 °F 29.91 in SSW 4.0 mph 8.0 mph 65% 0.00 in
13:54 90.2 °F 75.9 °F 29.91 in SW 4.0 mph 6.0 mph 63% 0.00 in
13:59 90.2 °F 76.4 °F 29.91 in SW 8.0 mph 8.0 mph 64% 0.00 in
14:04 89.7 °F 76.4 °F 29.91 in West 4.0 mph 9.0 mph 65% 0.00 in
14:09 89.6 °F 75.3 °F 29.91 in SSW 2.0 mph 6.0 mph 63% 0.00 in
14:14 89.9 °F 76.6 °F 29.90 in WNW 4.0 mph 5.0 mph 65% 0.00 in
14:19 90.1 °F 75.3 °F 29.90 in SSW 4.0 mph 6.0 mph 62% 0.00 in
14:24 90.0 °F 76.2 °F 29.91 in SSW 5.0 mph 5.0 mph 64% 0.00 in
14:29 89.9 °F 76.1 °F 29.90 in WSW 3.0 mph 6.0 mph 64% 0.00 in
14:34 89.9 °F 74.7 °F 29.90 in WSW 5.0 mph 6.0 mph 61% 0.00 in
14:39 90.0 °F 74.8 °F 29.90 in South 4.0 mph 8.0 mph 61% 0.00 in
14:44 90.9 °F 76.1 °F 29.90 in SE 5.0 mph 6.0 mph 62% 0.00 in
14:49 91.2 °F 75.9 °F 29.90 in SW 4.0 mph 7.0 mph 61% 0.00 in
14:54 91.4 °F 76.1 °F 29.90 in SW 4.0 mph 7.0 mph 61% 0.00 in
14:59 91.6 °F 75.8 °F 29.90 in West 6.0 mph 6.0 mph 60% 0.00 in
15:04 91.4 °F 75.1 °F 29.89 in WSW 3.0 mph 6.0 mph 59% 0.00 in
15:10 91.3 °F 76.5 °F 29.89 in SSW 4.0 mph 9.0 mph 62% 0.00 in
15:15 91.6 °F 75.8 °F 29.89 in SSW 7.0 mph 14.0 mph 60% 0.00 in
15:20 91.8 °F 75.9 °F 29.89 in WSW 7.0 mph 8.0 mph 60% 0.00 in
15:25 91.6 °F 77.2 °F 29.89 in WSW 8.0 mph 11.0 mph 63% 0.00 in
15:30 91.7 °F 76.8 °F 29.89 in SSW 8.0 mph 8.0 mph 62% 0.00 in
15:35 91.4 °F 75.6 °F 29.89 in SSW 5.0 mph 10.0 mph 60% 0.00 in
15:40 91.3 °F 75.0 °F 29.89 in SW 4.0 mph 9.0 mph 59% 0.00 in
15:45 91.6 °F 76.7 °F 29.89 in SSW 7.0 mph 8.0 mph 62% 0.00 in
15:50 91.7 °F 75.3 °F 29.89 in WSW 6.0 mph 11.0 mph 59% 0.00 in
15:55 91.5 °F 76.7 °F 29.89 in WSW 6.0 mph 7.0 mph 62% 0.00 in
16:00 91.4 °F 76.1 °F 29.89 in West 8.0 mph 10.0 mph 61% 0.00 in
16:05 91.4 °F 76.1 °F 29.88 in SW 11.0 mph 11.0 mph 61% 0.00 in
16:10 91.5 °F 77.6 °F 29.88 in WSW 5.0 mph 8.0 mph 64% 0.00 in
16:16 91.6 °F 77.2 °F 29.88 in SSE 4.0 mph 10.0 mph 63% 0.00 in
16:20 91.4 °F 75.1 °F 29.88 in SSW 6.0 mph 7.0 mph 59% 0.00 in
16:25 91.5 °F 76.7 °F 29.88 in SSW 3.0 mph 7.0 mph 62% 0.00 in
16:30 91.6 °F 74.7 °F 29.88 in WSW 6.0 mph 10.0 mph 58% 0.00 in
16:35 91.6 °F 75.8 °F 29.88 in WSW 4.0 mph 6.0 mph 60% 0.00 in
16:40 91.8 °F 75.4 °F 29.88 in SW 7.0 mph 9.0 mph 59% 0.00 in
16:46 91.7 °F 74.3 °F 29.88 in SSW 7.0 mph 11.0 mph 57% 0.00 in
16:51 91.5 °F 74.7 °F 29.88 in SW 10.0 mph 10.0 mph 58% 0.00 in
16:56 91.4 °F 74.0 °F 29.88 in SW 8.0 mph 8.0 mph 57% 0.00 in
17:01 91.4 °F 75.6 °F 29.88 in SW 6.0 mph 12.0 mph 60% 0.00 in
17:06 91.6 °F 74.7 °F 29.88 in SW 7.0 mph 9.0 mph 58% 0.00 in
17:11 91.5 °F 74.7 °F 29.88 in SW 7.0 mph 9.0 mph 58% 0.00 in
17:16 91.6 °F 73.7 °F 29.88 in SSW 6.0 mph 9.0 mph 56% 0.00 in
17:21 91.5 °F 75.2 °F 29.87 in WSW 6.0 mph 7.0 mph 59% 0.00 in
17:26 91.3 °F 74.5 °F 29.87 in SSE 4.0 mph 9.0 mph 58% 0.00 in
17:31 91.8 °F 75.4 °F 29.87 in SW 9.0 mph 9.0 mph 59% 0.00 in
17:36 91.9 °F 75.5 °F 29.87 in South 4.0 mph 8.0 mph 59% 0.00 in
17:41 91.8 °F 74.4 °F 29.87 in WSW 8.0 mph 9.0 mph 57% 0.00 in
17:46 91.4 °F 75.1 °F 29.87 in SW 5.0 mph 10.0 mph 59% 0.00 in
17:51 91.3 °F 75.5 °F 29.87 in WSW 6.0 mph 10.0 mph 60% 0.00 in
17:56 91.5 °F 76.2 °F 29.86 in SW 6.0 mph 9.0 mph 61% 0.00 in
18:01 91.4 °F 75.6 °F 29.86 in SSW 7.0 mph 9.0 mph 60% 0.00 in
18:06 91.0 °F 75.2 °F 29.86 in WSW 10.0 mph 10.0 mph 60% 0.00 in
18:11 90.9 °F 76.1 °F 29.86 in SW 6.0 mph 9.0 mph 62% 0.00 in
18:16 90.8 °F 76.0 °F 29.86 in South 5.0 mph 10.0 mph 62% 0.00 in
18:21 90.8 °F 75.0 °F 29.86 in SSW 6.0 mph 8.0 mph 60% 0.00 in
18:26 91.0 °F 76.2 °F 29.85 in SW 8.0 mph 8.0 mph 62% 0.00 in
18:31 91.0 °F 75.7 °F 29.85 in SSW 3.0 mph 8.0 mph 61% 0.00 in
18:36 91.1 °F 75.8 °F 29.85 in WSW 3.0 mph 8.0 mph 61% 0.00 in
18:41 90.9 °F 74.6 °F 29.85 in WSW 5.0 mph 8.0 mph 59% 0.00 in
18:46 90.8 °F 75.0 °F 29.85 in SW 5.0 mph 7.0 mph 60% 0.00 in
18:51 90.7 °F 74.9 °F 29.85 in South 4.0 mph 9.0 mph 60% 0.00 in
18:57 90.5 °F 75.2 °F 29.85 in SSW 3.0 mph 8.0 mph 61% 0.00 in
19:02 90.4 °F 75.1 °F 29.85 in SSW 3.0 mph 9.0 mph 61% 0.00 in
19:07 90.4 °F 75.1 °F 29.85 in SW 2.0 mph 7.0 mph 61% 0.00 in
19:12 90.4 °F 75.6 °F 29.85 in SW 4.0 mph 6.0 mph 62% 0.00 in
19:17 90.2 °F 75.4 °F 29.85 in SSW 2.0 mph 6.0 mph 62% 0.00 in
19:22 90.2 °F 75.4 °F 29.84 in SW 4.0 mph 6.0 mph 62% 0.00 in
19:27 90.1 °F 76.8 °F 29.84 in SSW 1.0 mph 4.0 mph 65% 0.00 in
19:32 89.9 °F 75.6 °F 29.84 in SW 2.0 mph 6.0 mph 63% 0.00 in
19:37 89.7 °F 75.9 °F 29.84 in SSW 3.0 mph 6.0 mph 64% 0.00 in
19:42 89.6 °F 76.3 °F 29.84 in SW 4.0 mph 5.0 mph 65% 0.00 in
19:47 89.4 °F 76.1 °F 29.84 in SSW 2.0 mph 4.0 mph 65% 0.00 in
19:52 89.3 °F 76.5 °F 29.84 in SW 3.0 mph 3.0 mph 66% 0.00 in
19:57 88.8 °F 76.0 °F 29.84 in SW 3.0 mph 5.0 mph 66% 0.00 in
20:02 88.5 °F 75.2 °F 29.84 in SSW 3.0 mph 6.0 mph 65% 0.00 in
20:07 88.2 °F 75.0 °F 29.84 in SSW 4.0 mph 7.0 mph 65% 0.00 in
20:12 87.8 °F 75.5 °F 29.84 in SW 3.0 mph 5.0 mph 67% 0.00 in
20:17 87.5 °F 75.6 °F 29.84 in SW 2.0 mph 3.0 mph 68% 0.00 in
20:22 87.2 °F 75.4 °F 29.84 in SW 2.0 mph 4.0 mph 68% 0.00 in
20:27 86.8 °F 75.4 °F 29.84 in SW 3.0 mph 3.0 mph 69% 0.00 in
20:32 86.4 °F 75.5 °F 29.84 in SW 1.0 mph 4.0 mph 70% 0.00 in
20:37 85.9 °F 75.0 °F 29.84 in WSW 2.0 mph 3.0 mph 70% 0.00 in
20:43 85.4 °F 74.9 °F 29.84 in SW 3.0 mph 4.0 mph 71% 0.00 in
20:48 84.9 °F 74.9 °F 29.84 in SW 1.0 mph 4.0 mph 72% 0.00 in
20:53 84.5 °F 74.9 °F 29.84 in SSW 1.0 mph 4.0 mph 73% 0.00 in
20:58 84.1 °F 74.9 °F 29.84 in SSW 1.0 mph 2.0 mph 74% 0.00 in
21:03 83.8 °F 74.6 °F 29.84 in SW 1.0 mph 3.0 mph 74% 0.00 in
21:08 83.5 °F 74.8 °F 29.84 in Calm   2.0 mph 75% 0.00 in
21:13 83.2 °F 74.8 °F 29.84 in SSW 1.0 mph 2.0 mph 76% 0.00 in
21:18 82.9 °F 74.9 °F 29.85 in SW 1.0 mph 1.0 mph 77% 0.00 in
21:23 82.7 °F 74.8 °F 29.85 in SSW 1.0 mph 2.0 mph 77% 0.00 in
21:28 82.4 °F 74.9 °F 29.85 in SSW 2.0 mph 3.0 mph 78% 0.00 in
21:33 82.3 °F 74.8 °F 29.85 in SSW 1.0 mph 3.0 mph 78% 0.00 in
21:38 82.1 °F 74.6 °F 29.85 in SSW 1.0 mph 3.0 mph 78% 0.00 in
21:43 81.9 °F 74.8 °F 29.86 in SW 1.0 mph 3.0 mph 79% 0.00 in
21:48 81.8 °F 74.7 °F 29.86 in SW 1.0 mph 2.0 mph 79% 0.00 in
21:53 81.7 °F 74.6 °F 29.86 in SW 1.0 mph 2.0 mph 79% 0.00 in
21:58 81.5 °F 74.4 °F 29.86 in Calm   1.0 mph 79% 0.00 in
22:03 81.4 °F 74.6 °F 29.86 in Calm   2.0 mph 80% 0.00 in
22:08 81.1 °F 74.3 °F 29.86 in Calm   1.0 mph 80% 0.00 in
22:13 80.9 °F 74.2 °F 29.87 in Calm     80% 0.00 in
22:18 80.7 °F 74.0 °F 29.87 in Calm   1.0 mph 80% 0.00 in
22:23 80.6 °F 74.2 °F 29.87 in Calm   1.0 mph 81% 0.00 in
22:28 80.4 °F 73.7 °F 29.87 in SW 2.0 mph 2.0 mph 80% 0.00 in
22:33 80.5 °F 73.8 °F 29.87 in SSW 1.0 mph 2.0 mph 80% 0.00 in
22:38 80.5 °F 73.8 °F 29.87 in SSW 3.0 mph 3.0 mph 80% 0.00 in
22:43 80.6 °F 73.5 °F 29.87 in SSW 1.0 mph 2.0 mph 79% 0.00 in
22:48 80.6 °F 73.5 °F 29.87 in SSE 2.0 mph 2.0 mph 79% 0.00 in
22:53 80.5 °F 73.4 °F 29.87 in SSW 1.0 mph 2.0 mph 79% 0.00 in
22:58 80.6 °F 73.5 °F 29.87 in SSE 1.0 mph 2.0 mph 79% 0.00 in
23:03 80.4 °F 73.7 °F 29.87 in Calm   1.0 mph 80% 0.00 in
23:08 80.3 °F 73.6 °F 29.87 in South 1.0 mph 1.0 mph 80% 0.00 in
23:13 80.2 °F 73.5 °F 29.87 in SSE 2.0 mph 2.0 mph 80% 0.00 in
23:18 80.2 °F 73.8 °F 29.87 in Calm   2.0 mph 81% 0.00 in
23:23 80.0 °F 73.7 °F 29.87 in Calm     81% 0.00 in
23:28 79.7 °F 73.7 °F 29.86 in SSE 1.0 mph 1.0 mph 82% 0.00 in
23:33 79.6 °F 73.6 °F 29.86 in Calm   1.0 mph 82% 0.00 in
23:38 79.5 °F 73.5 °F 29.86 in SSE 1.0 mph 2.0 mph 82% 0.00 in
23:43 79.4 °F 73.4 °F 29.86 in SSW 2.0 mph 2.0 mph 82% 0.00 in
23:48 79.3 °F 73.3 °F 29.86 in SSE 2.0 mph 3.0 mph 82% 0.00 in
23:53 79.2 °F 73.6 °F 29.86 in Calm   2.0 mph 83% 0.00 in
23:58 79.2 °F 73.6 °F 29.86 in SSE 2.0 mph 2.0 mph 83% 0.00 in
Compliments of Weather Underground